sensor_id;sensor_type;location;lat;lon;timestamp;P1;durP1;ratioP1;P2;durP2;ratioP2
37855;SDS011;23694;43.274;26.924;2023-05-07T00:01:59;7.20;;;4.67;;
37855;SDS011;23694;43.274;26.924;2023-05-07T00:04:25;7.17;;;4.70;;
37855;SDS011;23694;43.274;26.924;2023-05-07T00:06:52;9.97;;;4.43;;
37855;SDS011;23694;43.274;26.924;2023-05-07T00:09:18;7.13;;;4.37;;
37855;SDS011;23694;43.274;26.924;2023-05-07T00:11:44;7.23;;;4.20;;
37855;SDS011;23694;43.274;26.924;2023-05-07T00:14:10;7.30;;;4.17;;
37855;SDS011;23694;43.274;26.924;2023-05-07T00:16:36;6.47;;;3.87;;
37855;SDS011;23694;43.274;26.924;2023-05-07T00:19:02;7.53;;;3.93;;
37855;SDS011;23694;43.274;26.924;2023-05-07T00:21:29;5.67;;;3.60;;
37855;SDS011;23694;43.274;26.924;2023-05-07T00:23:56;6.43;;;3.77;;
37855;SDS011;23694;43.274;26.924;2023-05-07T00:26:22;6.83;;;3.53;;
37855;SDS011;23694;43.274;26.924;2023-05-07T00:28:48;5.73;;;3.70;;
37855;SDS011;23694;43.274;26.924;2023-05-07T00:31:14;7.63;;;3.90;;
37855;SDS011;23694;43.274;26.924;2023-05-07T00:33:40;6.10;;;3.10;;
37855;SDS011;23694;43.274;26.924;2023-05-07T00:36:06;5.07;;;3.20;;
37855;SDS011;23694;43.274;26.924;2023-05-07T00:38:32;5.67;;;3.43;;
37855;SDS011;23694;43.274;26.924;2023-05-07T00:40:58;5.87;;;3.30;;
37855;SDS011;23694;43.274;26.924;2023-05-07T00:43:24;6.03;;;3.10;;
37855;SDS011;23694;43.274;26.924;2023-05-07T00:45:51;6.80;;;3.30;;
37855;SDS011;23694;43.274;26.924;2023-05-07T00:48:17;4.80;;;3.00;;
37855;SDS011;23694;43.274;26.924;2023-05-07T00:50:44;5.10;;;2.60;;
37855;SDS011;23694;43.274;26.924;2023-05-07T00:53:11;5.53;;;3.27;;
37855;SDS011;23694;43.274;26.924;2023-05-07T00:55:38;5.23;;;2.87;;
37855;SDS011;23694;43.274;26.924;2023-05-07T00:58:04;6.83;;;3.27;;
37855;SDS011;23694;43.274;26.924;2023-05-07T01:00:31;4.63;;;2.80;;
37855;SDS011;23694;43.274;26.924;2023-05-07T01:02:57;5.67;;;3.00;;
37855;SDS011;23694;43.274;26.924;2023-05-07T01:05:23;7.00;;;3.37;;
37855;SDS011;23694;43.274;26.924;2023-05-07T01:07:51;6.43;;;2.93;;
37855;SDS011;23694;43.274;26.924;2023-05-07T01:10:19;6.47;;;2.67;;
37855;SDS011;23694;43.274;26.924;2023-05-07T01:12:46;4.47;;;2.63;;
37855;SDS011;23694;43.274;26.924;2023-05-07T01:15:14;4.07;;;2.53;;
37855;SDS011;23694;43.274;26.924;2023-05-07T01:17:41;6.43;;;3.10;;
37855;SDS011;23694;43.274;26.924;2023-05-07T01:20:08;9.87;;;5.00;;
37855;SDS011;23694;43.274;26.924;2023-05-07T01:22:38;7.77;;;4.47;;
37855;SDS011;23694;43.274;26.924;2023-05-07T01:25:05;7.07;;;3.83;;
37855;SDS011;23694;43.274;26.924;2023-05-07T01:27:32;4.73;;;3.17;;
37855;SDS011;23694;43.274;26.924;2023-05-07T01:29:59;4.53;;;2.80;;
37855;SDS011;23694;43.274;26.924;2023-05-07T01:32:40;4.73;;;3.00;;
37855;SDS011;23694;43.274;26.924;2023-05-07T01:35:11;13.10;;;8.07;;
37855;SDS011;23694;43.274;26.924;2023-05-07T01:37:39;16.73;;;11.33;;
37855;SDS011;23694;43.274;26.924;2023-05-07T01:40:06;14.43;;;11.20;;
37855;SDS011;23694;43.274;26.924;2023-05-07T01:42:33;12.40;;;8.27;;
37855;SDS011;23694;43.274;26.924;2023-05-07T01:44:59;9.97;;;6.57;;
37855;SDS011;23694;43.274;26.924;2023-05-07T01:47:25;6.30;;;5.57;;
37855;SDS011;23694;43.274;26.924;2023-05-07T01:49:52;4.80;;;4.17;;
37855;SDS011;23694;43.274;26.924;2023-05-07T01:52:18;3.93;;;3.53;;
37855;SDS011;23694;43.274;26.924;2023-05-07T01:54:44;4.00;;;3.30;;
37855;SDS011;23694;43.274;26.924;2023-05-07T01:57:10;6.17;;;3.50;;
37855;SDS011;23694;43.274;26.924;2023-05-07T01:59:36;4.83;;;2.50;;
37855;SDS011;23694;43.274;26.924;2023-05-07T02:02:03;4.57;;;2.40;;
37855;SDS011;23694;43.274;26.924;2023-05-07T02:04:29;5.07;;;2.57;;
37855;SDS011;23694;43.274;26.924;2023-05-07T02:06:55;5.23;;;2.30;;
37855;SDS011;23694;43.274;26.924;2023-05-07T02:09:21;3.87;;;2.23;;
37855;SDS011;23694;43.274;26.924;2023-05-07T02:11:48;5.57;;;2.33;;
37855;SDS011;23694;43.274;26.924;2023-05-07T02:14:14;6.07;;;2.40;;
37855;SDS011;23694;43.274;26.924;2023-05-07T02:16:41;2.63;;;2.07;;
37855;SDS011;23694;43.274;26.924;2023-05-07T02:19:07;4.63;;;2.30;;
37855;SDS011;23694;43.274;26.924;2023-05-07T02:21:33;4.50;;;2.37;;
37855;SDS011;23694;43.274;26.924;2023-05-07T02:23:59;7.80;;;4.50;;
37855;SDS011;23694;43.274;26.924;2023-05-07T02:26:25;11.57;;;8.27;;
37855;SDS011;23694;43.274;26.924;2023-05-07T02:28:51;25.83;;;14.83;;
37855;SDS011;23694;43.274;26.924;2023-05-07T02:31:17;25.00;;;15.03;;
37855;SDS011;23694;43.274;26.924;2023-05-07T02:33:43;21.70;;;13.97;;
37855;SDS011;23694;43.274;26.924;2023-05-07T02:36:11;19.17;;;13.20;;
37855;SDS011;23694;43.274;26.924;2023-05-07T02:38:37;22.07;;;13.03;;
37855;SDS011;23694;43.274;26.924;2023-05-07T02:41:04;17.23;;;12.90;;
37855;SDS011;23694;43.274;26.924;2023-05-07T02:43:30;17.80;;;11.80;;
37855;SDS011;23694;43.274;26.924;2023-05-07T02:46:00;18.03;;;11.97;;
37855;SDS011;23694;43.274;26.924;2023-05-07T02:48:29;16.37;;;10.50;;
37855;SDS011;23694;43.274;26.924;2023-05-07T02:50:55;9.23;;;7.33;;
37855;SDS011;23694;43.274;26.924;2023-05-07T02:53:22;6.50;;;5.67;;
37855;SDS011;23694;43.274;26.924;2023-05-07T02:55:51;6.57;;;4.93;;
37855;SDS011;23694;43.274;26.924;2023-05-07T02:58:21;6.97;;;4.20;;
37855;SDS011;23694;43.274;26.924;2023-05-07T03:00:47;6.93;;;3.20;;
37855;SDS011;23694;43.274;26.924;2023-05-07T03:03:13;5.00;;;3.20;;
37855;SDS011;23694;43.274;26.924;2023-05-07T03:05:40;4.53;;;2.93;;
37855;SDS011;23694;43.274;26.924;2023-05-07T03:08:07;4.00;;;2.60;;
37855;SDS011;23694;43.274;26.924;2023-05-07T03:10:33;7.83;;;2.70;;
37855;SDS011;23694;43.274;26.924;2023-05-07T03:13:00;7.63;;;2.93;;
37855;SDS011;23694;43.274;26.924;2023-05-07T03:15:26;5.43;;;2.70;;
37855;SDS011;23694;43.274;26.924;2023-05-07T03:17:52;3.63;;;2.17;;
37855;SDS011;23694;43.274;26.924;2023-05-07T03:20:18;4.20;;;2.17;;
37855;SDS011;23694;43.274;26.924;2023-05-07T03:22:44;3.87;;;2.37;;
37855;SDS011;23694;43.274;26.924;2023-05-07T03:25:10;6.13;;;2.93;;
37855;SDS011;23694;43.274;26.924;2023-05-07T03:27:37;6.60;;;2.60;;
37855;SDS011;23694;43.274;26.924;2023-05-07T03:30:03;3.87;;;2.47;;
37855;SDS011;23694;43.274;26.924;2023-05-07T03:32:30;4.77;;;2.40;;
37855;SDS011;23694;43.274;26.924;2023-05-07T03:34:56;5.33;;;2.70;;
37855;SDS011;23694;43.274;26.924;2023-05-07T03:37:22;5.77;;;2.50;;
37855;SDS011;23694;43.274;26.924;2023-05-07T03:39:48;6.47;;;2.60;;
37855;SDS011;23694;43.274;26.924;2023-05-07T03:42:14;6.70;;;3.13;;
37855;SDS011;23694;43.274;26.924;2023-05-07T03:44:40;11.30;;;5.67;;
37855;SDS011;23694;43.274;26.924;2023-05-07T03:47:06;17.33;;;9.70;;
37855;SDS011;23694;43.274;26.924;2023-05-07T03:49:33;24.07;;;11.00;;
37855;SDS011;23694;43.274;26.924;2023-05-07T03:51:59;23.27;;;10.57;;
37855;SDS011;23694;43.274;26.924;2023-05-07T03:54:25;26.20;;;11.63;;
37855;SDS011;23694;43.274;26.924;2023-05-07T03:56:51;21.53;;;11.13;;
37855;SDS011;23694;43.274;26.924;2023-05-07T03:59:17;20.40;;;10.13;;
37855;SDS011;23694;43.274;26.924;2023-05-07T04:01:43;25.93;;;12.83;;
37855;SDS011;23694;43.274;26.924;2023-05-07T04:04:10;31.43;;;13.87;;
37855;SDS011;23694;43.274;26.924;2023-05-07T04:06:36;24.10;;;12.67;;
37855;SDS011;23694;43.274;26.924;2023-05-07T04:09:03;23.63;;;11.63;;
37855;SDS011;23694;43.274;26.924;2023-05-07T04:11:29;22.83;;;11.87;;
37855;SDS011;23694;43.274;26.924;2023-05-07T04:13:55;19.90;;;10.50;;
37855;SDS011;23694;43.274;26.924;2023-05-07T04:16:21;16.87;;;9.53;;
37855;SDS011;23694;43.274;26.924;2023-05-07T04:18:47;16.10;;;8.97;;
37855;SDS011;23694;43.274;26.924;2023-05-07T04:21:14;15.67;;;8.07;;
37855;SDS011;23694;43.274;26.924;2023-05-07T04:23:43;15.77;;;8.47;;
37855;SDS011;23694;43.274;26.924;2023-05-07T04:26:09;12.83;;;7.40;;
37855;SDS011;23694;43.274;26.924;2023-05-07T04:28:35;13.77;;;7.50;;
37855;SDS011;23694;43.274;26.924;2023-05-07T04:31:02;15.93;;;8.30;;
37855;SDS011;23694;43.274;26.924;2023-05-07T04:33:28;14.33;;;7.20;;
37855;SDS011;23694;43.274;26.924;2023-05-07T04:35:54;8.20;;;4.97;;
37855;SDS011;23694;43.274;26.924;2023-05-07T04:38:20;8.30;;;4.03;;
37855;SDS011;23694;43.274;26.924;2023-05-07T04:40:46;4.53;;;3.13;;
37855;SDS011;23694;43.274;26.924;2023-05-07T04:43:12;5.77;;;2.93;;
37855;SDS011;23694;43.274;26.924;2023-05-07T04:45:38;3.13;;;2.13;;
37855;SDS011;23694;43.274;26.924;2023-05-07T04:48:09;4.80;;;1.80;;
37855;SDS011;23694;43.274;26.924;2023-05-07T04:50:35;2.40;;;1.80;;
37855;SDS011;23694;43.274;26.924;2023-05-07T04:53:01;4.72;;;1.85;;
37855;SDS011;23694;43.274;26.924;2023-05-07T04:55:28;4.45;;;2.20;;
37855;SDS011;23694;43.274;26.924;2023-05-07T04:57:54;4.60;;;2.30;;
37855;SDS011;23694;43.274;26.924;2023-05-07T05:00:21;5.60;;;1.90;;
37855;SDS011;23694;43.274;26.924;2023-05-07T05:02:47;2.85;;;1.85;;
37855;SDS011;23694;43.274;26.924;2023-05-07T05:05:13;5.75;;;1.92;;
37855;SDS011;23694;43.274;26.924;2023-05-07T05:07:39;9.07;;;1.98;;
37855;SDS011;23694;43.274;26.924;2023-05-07T05:10:05;2.70;;;1.52;;
37855;SDS011;23694;43.274;26.924;2023-05-07T05:12:32;4.50;;;1.85;;
37855;SDS011;23694;43.274;26.924;2023-05-07T05:14:58;4.03;;;1.60;;
37855;SDS011;23694;43.274;26.924;2023-05-07T05:17:24;3.10;;;1.67;;
37855;SDS011;23694;43.274;26.924;2023-05-07T05:19:50;4.65;;;1.70;;
37855;SDS011;23694;43.274;26.924;2023-05-07T05:22:16;4.88;;;1.75;;
37855;SDS011;23694;43.274;26.924;2023-05-07T05:24:42;3.75;;;1.80;;
37855;SDS011;23694;43.274;26.924;2023-05-07T05:27:08;3.90;;;1.80;;
37855;SDS011;23694;43.274;26.924;2023-05-07T05:29:34;2.92;;;1.65;;
37855;SDS011;23694;43.274;26.924;2023-05-07T05:32:00;4.90;;;2.08;;
37855;SDS011;23694;43.274;26.924;2023-05-07T05:34:26;6.20;;;2.33;;
37855;SDS011;23694;43.274;26.924;2023-05-07T05:36:53;4.78;;;1.58;;
37855;SDS011;23694;43.274;26.924;2023-05-07T05:39:19;8.23;;;3.23;;
37855;SDS011;23694;43.274;26.924;2023-05-07T05:41:45;8.30;;;6.07;;
37855;SDS011;23694;43.274;26.924;2023-05-07T05:44:11;11.33;;;7.70;;
37855;SDS011;23694;43.274;26.924;2023-05-07T05:46:38;13.17;;;7.07;;
37855;SDS011;23694;43.274;26.924;2023-05-07T05:49:04;11.73;;;8.83;;
37855;SDS011;23694;43.274;26.924;2023-05-07T05:51:30;10.17;;;7.77;;
37855;SDS011;23694;43.274;26.924;2023-05-07T05:53:56;3.73;;;2.40;;
37855;SDS011;23694;43.274;26.924;2023-05-07T05:56:22;6.70;;;2.17;;
37855;SDS011;23694;43.274;26.924;2023-05-07T05:58:48;5.70;;;1.90;;
37855;SDS011;23694;43.274;26.924;2023-05-07T06:01:14;5.47;;;2.13;;
37855;SDS011;23694;43.274;26.924;2023-05-07T06:03:40;3.87;;;2.00;;
37855;SDS011;23694;43.274;26.924;2023-05-07T06:06:06;3.97;;;2.20;;
37855;SDS011;23694;43.274;26.924;2023-05-07T06:08:32;7.53;;;2.60;;
37855;SDS011;23694;43.274;26.924;2023-05-07T06:10:58;5.17;;;2.10;;
37855;SDS011;23694;43.274;26.924;2023-05-07T06:13:25;8.13;;;4.40;;
37855;SDS011;23694;43.274;26.924;2023-05-07T06:15:51;4.77;;;2.53;;
37855;SDS011;23694;43.274;26.924;2023-05-07T06:18:17;4.10;;;2.20;;
37855;SDS011;23694;43.274;26.924;2023-05-07T06:20:43;4.67;;;2.20;;
37855;SDS011;23694;43.274;26.924;2023-05-07T06:23:09;5.00;;;2.30;;
37855;SDS011;23694;43.274;26.924;2023-05-07T06:25:35;4.40;;;2.43;;
37855;SDS011;23694;43.274;26.924;2023-05-07T06:28:01;3.53;;;1.80;;
37855;SDS011;23694;43.274;26.924;2023-05-07T06:30:27;3.13;;;1.80;;
37855;SDS011;23694;43.274;26.924;2023-05-07T06:32:53;4.47;;;1.90;;
37855;SDS011;23694;43.274;26.924;2023-05-07T06:35:19;13.33;;;8.63;;
37855;SDS011;23694;43.274;26.924;2023-05-07T06:37:45;4.63;;;2.50;;
37855;SDS011;23694;43.274;26.924;2023-05-07T06:40:12;8.47;;;3.03;;
37855;SDS011;23694;43.274;26.924;2023-05-07T06:42:38;3.20;;;1.83;;
37855;SDS011;23694;43.274;26.924;2023-05-07T06:45:04;4.77;;;2.07;;
37855;SDS011;23694;43.274;26.924;2023-05-07T06:47:30;4.17;;;1.90;;
37855;SDS011;23694;43.274;26.924;2023-05-07T06:49:56;6.23;;;2.27;;
37855;SDS011;23694;43.274;26.924;2023-05-07T06:52:22;4.50;;;2.17;;
37855;SDS011;23694;43.274;26.924;2023-05-07T06:54:48;3.77;;;2.17;;
37855;SDS011;23694;43.274;26.924;2023-05-07T06:57:14;5.77;;;2.20;;
37855;SDS011;23694;43.274;26.924;2023-05-07T06:59:40;7.47;;;2.07;;
37855;SDS011;23694;43.274;26.924;2023-05-07T07:02:06;5.40;;;1.90;;
37855;SDS011;23694;43.274;26.924;2023-05-07T07:04:34;10.23;;;2.53;;
37855;SDS011;23694;43.274;26.924;2023-05-07T07:07:00;5.63;;;2.07;;
37855;SDS011;23694;43.274;26.924;2023-05-07T07:09:26;3.80;;;2.00;;
37855;SDS011;23694;43.274;26.924;2023-05-07T07:11:52;4.03;;;1.90;;
37855;SDS011;23694;43.274;26.924;2023-05-07T07:14:18;3.23;;;1.70;;
37855;SDS011;23694;43.274;26.924;2023-05-07T07:16:44;4.27;;;1.77;;
37855;SDS011;23694;43.274;26.924;2023-05-07T07:19:10;4.27;;;1.90;;
37855;SDS011;23694;43.274;26.924;2023-05-07T07:21:36;4.87;;;1.83;;
37855;SDS011;23694;43.274;26.924;2023-05-07T07:24:02;4.57;;;1.80;;
37855;SDS011;23694;43.274;26.924;2023-05-07T07:26:28;3.00;;;1.90;;
37855;SDS011;23694;43.274;26.924;2023-05-07T07:28:54;3.30;;;1.87;;
37855;SDS011;23694;43.274;26.924;2023-05-07T07:31:20;4.93;;;1.90;;
37855;SDS011;23694;43.274;26.924;2023-05-07T07:33:46;4.37;;;2.00;;
37855;SDS011;23694;43.274;26.924;2023-05-07T07:36:12;3.37;;;2.00;;
37855;SDS011;23694;43.274;26.924;2023-05-07T07:38:38;3.27;;;1.97;;
37855;SDS011;23694;43.274;26.924;2023-05-07T07:41:04;3.43;;;1.60;;
37855;SDS011;23694;43.274;26.924;2023-05-07T07:43:30;6.13;;;2.00;;
37855;SDS011;23694;43.274;26.924;2023-05-07T07:45:56;3.40;;;1.67;;
37855;SDS011;23694;43.274;26.924;2023-05-07T07:48:22;6.07;;;1.97;;
37855;SDS011;23694;43.274;26.924;2023-05-07T07:50:49;5.43;;;2.10;;
37855;SDS011;23694;43.274;26.924;2023-05-07T07:53:16;4.40;;;1.93;;
37855;SDS011;23694;43.274;26.924;2023-05-07T07:55:43;7.03;;;1.67;;
37855;SDS011;23694;43.274;26.924;2023-05-07T07:58:09;3.60;;;1.80;;
37855;SDS011;23694;43.274;26.924;2023-05-07T08:00:35;2.90;;;1.87;;
37855;SDS011;23694;43.274;26.924;2023-05-07T08:03:01;3.63;;;1.67;;
37855;SDS011;23694;43.274;26.924;2023-05-07T08:05:28;5.37;;;1.80;;
37855;SDS011;23694;43.274;26.924;2023-05-07T08:07:55;3.50;;;1.70;;
37855;SDS011;23694;43.274;26.924;2023-05-07T08:10:21;5.17;;;1.97;;
37855;SDS011;23694;43.274;26.924;2023-05-07T08:12:48;2.17;;;1.40;;
37855;SDS011;23694;43.274;26.924;2023-05-07T08:15:14;4.67;;;1.80;;
37855;SDS011;23694;43.274;26.924;2023-05-07T08:17:41;3.60;;;1.60;;
37855;SDS011;23694;43.274;26.924;2023-05-07T08:20:07;4.47;;;1.70;;
37855;SDS011;23694;43.274;26.924;2023-05-07T08:22:34;6.87;;;1.50;;
37855;SDS011;23694;43.274;26.924;2023-05-07T08:25:01;5.60;;;1.77;;
37855;SDS011;23694;43.274;26.924;2023-05-07T08:27:27;2.77;;;1.50;;
37855;SDS011;23694;43.274;26.924;2023-05-07T08:29:54;4.13;;;2.00;;
37855;SDS011;23694;43.274;26.924;2023-05-07T08:32:20;4.13;;;1.63;;
37855;SDS011;23694;43.274;26.924;2023-05-07T08:34:47;6.00;;;1.77;;
37855;SDS011;23694;43.274;26.924;2023-05-07T08:37:13;2.97;;;1.50;;
37855;SDS011;23694;43.274;26.924;2023-05-07T08:39:40;6.57;;;1.63;;
37855;SDS011;23694;43.274;26.924;2023-05-07T08:42:06;3.30;;;1.50;;
37855;SDS011;23694;43.274;26.924;2023-05-07T08:44:34;3.87;;;1.60;;
37855;SDS011;23694;43.274;26.924;2023-05-07T08:47:01;3.37;;;1.40;;
37855;SDS011;23694;43.274;26.924;2023-05-07T08:49:28;3.27;;;1.40;;
37855;SDS011;23694;43.274;26.924;2023-05-07T08:51:54;4.00;;;1.30;;
37855;SDS011;23694;43.274;26.924;2023-05-07T08:54:21;1.97;;;1.20;;
37855;SDS011;23694;43.274;26.924;2023-05-07T08:56:47;3.67;;;1.80;;
37855;SDS011;23694;43.274;26.924;2023-05-07T08:59:13;3.67;;;1.30;;
37855;SDS011;23694;43.274;26.924;2023-05-07T09:01:39;3.17;;;1.50;;
37855;SDS011;23694;43.274;26.924;2023-05-07T09:04:06;4.30;;;1.53;;
37855;SDS011;23694;43.274;26.924;2023-05-07T09:06:33;2.37;;;1.60;;
37855;SDS011;23694;43.274;26.924;2023-05-07T09:08:59;2.00;;;1.47;;
37855;SDS011;23694;43.274;26.924;2023-05-07T09:11:27;2.57;;;1.30;;
37855;SDS011;23694;43.274;26.924;2023-05-07T09:13:54;4.07;;;1.60;;
37855;SDS011;23694;43.274;26.924;2023-05-07T09:16:26;3.17;;;1.50;;
37855;SDS011;23694;43.274;26.924;2023-05-07T09:18:54;4.30;;;2.60;;
37855;SDS011;23694;43.274;26.924;2023-05-07T09:21:21;2.70;;;1.53;;
37855;SDS011;23694;43.274;26.924;2023-05-07T09:23:51;4.63;;;2.03;;
37855;SDS011;23694;43.274;26.924;2023-05-07T09:26:22;5.47;;;1.98;;
37855;SDS011;23694;43.274;26.924;2023-05-07T09:28:49;3.63;;;1.73;;
37855;SDS011;23694;43.274;26.924;2023-05-07T09:31:15;5.20;;;1.33;;
37855;SDS011;23694;43.274;26.924;2023-05-07T09:33:41;4.30;;;1.80;;
37855;SDS011;23694;43.274;26.924;2023-05-07T09:36:07;5.33;;;1.57;;
37855;SDS011;23694;43.274;26.924;2023-05-07T09:38:36;3.87;;;1.80;;
37855;SDS011;23694;43.274;26.924;2023-05-07T09:41:03;3.20;;;2.53;;
37855;SDS011;23694;43.274;26.924;2023-05-07T09:43:34;2.03;;;1.50;;
37855;SDS011;23694;43.274;26.924;2023-05-07T09:46:11;5.60;;;1.47;;
37855;SDS011;23694;43.274;26.924;2023-05-07T09:48:39;3.77;;;1.63;;
37855;SDS011;23694;43.274;26.924;2023-05-07T09:51:15;1.73;;;1.50;;
37855;SDS011;23694;43.274;26.924;2023-05-07T09:53:48;3.60;;;1.57;;
37855;SDS011;23694;43.274;26.924;2023-05-07T09:56:14;4.97;;;1.70;;
37855;SDS011;23694;43.274;26.924;2023-05-07T09:58:43;3.17;;;1.37;;
37855;SDS011;23694;43.274;26.924;2023-05-07T10:01:11;2.97;;;1.33;;
37855;SDS011;23694;43.274;26.924;2023-05-07T10:03:41;4.50;;;1.60;;
37855;SDS011;23694;43.274;26.924;2023-05-07T10:06:08;3.80;;;1.30;;
37855;SDS011;23694;43.274;26.924;2023-05-07T10:08:35;2.33;;;1.33;;
37855;SDS011;23694;43.274;26.924;2023-05-07T10:11:03;4.23;;;1.57;;
37855;SDS011;23694;43.274;26.924;2023-05-07T10:13:30;5.57;;;1.50;;
37855;SDS011;23694;43.274;26.924;2023-05-07T10:15:58;4.30;;;1.70;;
37855;SDS011;23694;43.274;26.924;2023-05-07T10:18:25;3.20;;;1.40;;
37855;SDS011;23694;43.274;26.924;2023-05-07T10:20:55;2.83;;;1.30;;
37855;SDS011;23694;43.274;26.924;2023-05-07T10:24:05;2.37;;;1.27;;
37855;SDS011;23694;43.274;26.924;2023-05-07T10:29:07;3.00;;;1.97;;
37855;SDS011;23694;43.274;26.924;2023-05-07T10:34:48;3.60;;;1.30;;
37855;SDS011;23694;43.274;26.924;2023-05-07T10:37:16;2.70;;;1.47;;
37855;SDS011;23694;43.274;26.924;2023-05-07T10:39:43;3.47;;;1.67;;
37855;SDS011;23694;43.274;26.924;2023-05-07T10:42:13;3.53;;;1.50;;
37855;SDS011;23694;43.274;26.924;2023-05-07T10:44:40;3.30;;;1.67;;
37855;SDS011;23694;43.274;26.924;2023-05-07T10:47:10;3.30;;;1.30;;
37855;SDS011;23694;43.274;26.924;2023-05-07T10:54:45;3.50;;;1.43;;
37855;SDS011;23694;43.274;26.924;2023-05-07T10:59:56;2.97;;;1.30;;
37855;SDS011;23694;43.274;26.924;2023-05-07T11:02:22;2.47;;;1.38;;
37855;SDS011;23694;43.274;26.924;2023-05-07T11:07:54;3.72;;;1.10;;
37855;SDS011;23694;43.274;26.924;2023-05-07T11:10:21;3.40;;;1.42;;
37855;SDS011;23694;43.274;26.924;2023-05-07T11:12:50;2.40;;;1.47;;
37855;SDS011;23694;43.274;26.924;2023-05-07T11:15:36;3.03;;;1.40;;
37855;SDS011;23694;43.274;26.924;2023-05-07T11:18:08;4.17;;;1.43;;
37855;SDS011;23694;43.274;26.924;2023-05-07T11:23:59;5.17;;;3.00;;
37855;SDS011;23694;43.274;26.924;2023-05-07T11:26:06;2.00;;;1.53;;
37855;SDS011;23694;43.274;26.924;2023-05-07T11:28:37;2.20;;;1.77;;
37855;SDS011;23694;43.274;26.924;2023-05-07T11:33:31;2.87;;;1.40;;
37855;SDS011;23694;43.274;26.924;2023-05-07T11:35:59;2.40;;;1.50;;
37855;SDS011;23694;43.274;26.924;2023-05-07T11:38:26;3.53;;;1.73;;
37855;SDS011;23694;43.274;26.924;2023-05-07T11:40:57;2.63;;;1.90;;
37855;SDS011;23694;43.274;26.924;2023-05-07T11:43:28;4.13;;;2.40;;
37855;SDS011;23694;43.274;26.924;2023-05-07T11:45:54;4.93;;;1.40;;
37855;SDS011;23694;43.274;26.924;2023-05-07T11:48:21;2.30;;;1.20;;
37855;SDS011;23694;43.274;26.924;2023-05-07T11:53:18;4.47;;;1.60;;
37855;SDS011;23694;43.274;26.924;2023-05-07T11:55:45;3.77;;;1.57;;
37855;SDS011;23694;43.274;26.924;2023-05-07T11:58:12;2.97;;;1.33;;
37855;SDS011;23694;43.274;26.924;2023-05-07T12:00:49;1.93;;;1.30;;
37855;SDS011;23694;43.274;26.924;2023-05-07T12:03:15;3.13;;;1.40;;
37855;SDS011;23694;43.274;26.924;2023-05-07T12:05:44;3.10;;;1.50;;
37855;SDS011;23694;43.274;26.924;2023-05-07T12:08:20;3.33;;;1.30;;
37855;SDS011;23694;43.274;26.924;2023-05-07T12:10:48;4.20;;;1.70;;
37855;SDS011;23694;43.274;26.924;2023-05-07T12:13:19;4.73;;;1.50;;
37855;SDS011;23694;43.274;26.924;2023-05-07T12:15:47;3.28;;;1.60;;
37855;SDS011;23694;43.274;26.924;2023-05-07T12:18:16;2.87;;;1.70;;
37855;SDS011;23694;43.274;26.924;2023-05-07T12:20:43;2.47;;;1.53;;
37855;SDS011;23694;43.274;26.924;2023-05-07T12:23:10;3.27;;;1.67;;
37855;SDS011;23694;43.274;26.924;2023-05-07T12:25:40;3.67;;;1.67;;
37855;SDS011;23694;43.274;26.924;2023-05-07T12:28:15;3.43;;;1.50;;
37855;SDS011;23694;43.274;26.924;2023-05-07T12:30:46;2.77;;;1.30;;
37855;SDS011;23694;43.274;26.924;2023-05-07T12:33:18;2.07;;;1.53;;
37855;SDS011;23694;43.274;26.924;2023-05-07T12:35:49;4.60;;;1.93;;
37855;SDS011;23694;43.274;26.924;2023-05-07T12:38:16;2.20;;;1.47;;
37855;SDS011;23694;43.274;26.924;2023-05-07T12:40:44;7.07;;;1.70;;
37855;SDS011;23694;43.274;26.924;2023-05-07T12:43:26;2.50;;;1.30;;
37855;SDS011;23694;43.274;26.924;2023-05-07T12:45:54;2.50;;;1.30;;
37855;SDS011;23694;43.274;26.924;2023-05-07T12:48:22;4.53;;;1.67;;
37855;SDS011;23694;43.274;26.924;2023-05-07T12:50:50;2.60;;;1.60;;
37855;SDS011;23694;43.274;26.924;2023-05-07T12:53:16;3.73;;;1.50;;
37855;SDS011;23694;43.274;26.924;2023-05-07T12:55:46;2.83;;;1.63;;
37855;SDS011;23694;43.274;26.924;2023-05-07T12:58:15;4.77;;;1.60;;
37855;SDS011;23694;43.274;26.924;2023-05-07T13:00:42;2.73;;;1.53;;
37855;SDS011;23694;43.274;26.924;2023-05-07T13:03:09;7.47;;;1.80;;
37855;SDS011;23694;43.274;26.924;2023-05-07T13:05:36;2.87;;;1.43;;
37855;SDS011;23694;43.274;26.924;2023-05-07T13:08:02;3.83;;;1.63;;
37855;SDS011;23694;43.274;26.924;2023-05-07T13:10:28;3.90;;;1.43;;
37855;SDS011;23694;43.274;26.924;2023-05-07T13:12:54;2.77;;;2.43;;
37855;SDS011;23694;43.274;26.924;2023-05-07T13:15:20;6.03;;;2.23;;
37855;SDS011;23694;43.274;26.924;2023-05-07T13:17:47;7.37;;;1.70;;
37855;SDS011;23694;43.274;26.924;2023-05-07T13:20:13;2.60;;;1.45;;
37855;SDS011;23694;43.274;26.924;2023-05-07T13:22:39;3.95;;;1.60;;
37855;SDS011;23694;43.274;26.924;2023-05-07T13:25:05;3.38;;;1.40;;
37855;SDS011;23694;43.274;26.924;2023-05-07T13:27:32;2.23;;;1.50;;
37855;SDS011;23694;43.274;26.924;2023-05-07T13:30:02;3.10;;;1.47;;
37855;SDS011;23694;43.274;26.924;2023-05-07T13:32:30;4.10;;;1.70;;
37855;SDS011;23694;43.274;26.924;2023-05-07T13:34:57;3.27;;;1.50;;
37855;SDS011;23694;43.274;26.924;2023-05-07T13:37:23;2.87;;;1.30;;
37855;SDS011;23694;43.274;26.924;2023-05-07T13:39:49;3.20;;;1.63;;
37855;SDS011;23694;43.274;26.924;2023-05-07T13:42:15;2.87;;;1.80;;
37855;SDS011;23694;43.274;26.924;2023-05-07T13:44:41;4.90;;;1.47;;
37855;SDS011;23694;43.274;26.924;2023-05-07T13:47:07;5.13;;;1.60;;
37855;SDS011;23694;43.274;26.924;2023-05-07T13:49:33;5.17;;;1.73;;
37855;SDS011;23694;43.274;26.924;2023-05-07T13:51:59;1.80;;;1.50;;
37855;SDS011;23694;43.274;26.924;2023-05-07T13:54:25;3.40;;;1.67;;
37855;SDS011;23694;43.274;26.924;2023-05-07T13:56:51;3.80;;;1.50;;
37855;SDS011;23694;43.274;26.924;2023-05-07T13:59:17;3.63;;;1.67;;
37855;SDS011;23694;43.274;26.924;2023-05-07T14:01:43;3.43;;;1.50;;
37855;SDS011;23694;43.274;26.924;2023-05-07T14:04:09;2.33;;;1.60;;
37855;SDS011;23694;43.274;26.924;2023-05-07T14:06:35;3.30;;;1.63;;
37855;SDS011;23694;43.274;26.924;2023-05-07T14:09:01;6.30;;;1.80;;
37855;SDS011;23694;43.274;26.924;2023-05-07T14:11:27;3.67;;;1.52;;
37855;SDS011;23694;43.274;26.924;2023-05-07T14:13:53;3.63;;;1.57;;
37855;SDS011;23694;43.274;26.924;2023-05-07T14:16:19;2.43;;;1.30;;
37855;SDS011;23694;43.274;26.924;2023-05-07T14:18:45;2.07;;;1.53;;
37855;SDS011;23694;43.274;26.924;2023-05-07T14:21:11;2.43;;;1.40;;
37855;SDS011;23694;43.274;26.924;2023-05-07T14:23:37;2.87;;;1.53;;
37855;SDS011;23694;43.274;26.924;2023-05-07T14:26:03;3.37;;;1.90;;
37855;SDS011;23694;43.274;26.924;2023-05-07T14:28:29;2.10;;;1.17;;
37855;SDS011;23694;43.274;26.924;2023-05-07T14:30:55;3.60;;;1.57;;
37855;SDS011;23694;43.274;26.924;2023-05-07T14:33:21;3.53;;;1.43;;
37855;SDS011;23694;43.274;26.924;2023-05-07T14:35:47;3.50;;;1.53;;
37855;SDS011;23694;43.274;26.924;2023-05-07T14:38:15;1.77;;;1.30;;
37855;SDS011;23694;43.274;26.924;2023-05-07T14:40:41;4.53;;;1.60;;
37855;SDS011;23694;43.274;26.924;2023-05-07T14:43:07;3.40;;;1.60;;
37855;SDS011;23694;43.274;26.924;2023-05-07T14:45:33;3.00;;;1.43;;
37855;SDS011;23694;43.274;26.924;2023-05-07T14:48:00;5.47;;;1.40;;
37855;SDS011;23694;43.274;26.924;2023-05-07T14:50:26;3.47;;;1.57;;
37855;SDS011;23694;43.274;26.924;2023-05-07T14:52:52;6.03;;;3.47;;
37855;SDS011;23694;43.274;26.924;2023-05-07T14:55:18;1.93;;;1.60;;
37855;SDS011;23694;43.274;26.924;2023-05-07T14:57:44;6.40;;;4.27;;